sensor_id;sensor_type;location;lat;lon;timestamp;temperature;humidity
43894;DHT22;29556;50.846;4.442;2023-03-23T00:01:00;14.00;84.90
43894;DHT22;29556;50.846;4.442;2023-03-23T00:03:27;14.10;84.80
43894;DHT22;29556;50.846;4.442;2023-03-23T00:05:55;13.90;85.20
43894;DHT22;29556;50.846;4.442;2023-03-23T00:08:28;13.90;85.30
43894;DHT22;29556;50.846;4.442;2023-03-23T00:10:53;14.10;85.40
43894;DHT22;29556;50.846;4.442;2023-03-23T00:13:24;14.10;85.10
43894;DHT22;29556;50.846;4.442;2023-03-23T00:15:50;14.00;84.90
43894;DHT22;29556;50.846;4.442;2023-03-23T00:18:20;14.10;85.10
43894;DHT22;29556;50.846;4.442;2023-03-23T00:20:48;14.00;84.90
43894;DHT22;29556;50.846;4.442;2023-03-23T00:23:18;14.00;85.20
43894;DHT22;29556;50.846;4.442;2023-03-23T00:25:49;14.00;85.20
43894;DHT22;29556;50.846;4.442;2023-03-23T00:28:16;14.10;85.10
43894;DHT22;29556;50.846;4.442;2023-03-23T00:30:42;14.10;85.00
43894;DHT22;29556;50.846;4.442;2023-03-23T00:33:11;14.10;84.90
43894;DHT22;29556;50.846;4.442;2023-03-23T00:35:38;14.10;84.80
43894;DHT22;29556;50.846;4.442;2023-03-23T00:38:05;14.00;84.80
43894;DHT22;29556;50.846;4.442;2023-03-23T00:40:31;14.10;85.30
43894;DHT22;29556;50.846;4.442;2023-03-23T00:43:01;14.00;85.20
43894;DHT22;29556;50.846;4.442;2023-03-23T00:45:28;13.90;85.40
43894;DHT22;29556;50.846;4.442;2023-03-23T00:47:54;14.00;85.40
43894;DHT22;29556;50.846;4.442;2023-03-23T00:50:21;14.00;85.20
43894;DHT22;29556;50.846;4.442;2023-03-23T00:52:47;14.00;85.00
43894;DHT22;29556;50.846;4.442;2023-03-23T00:55:17;13.90;85.30
43894;DHT22;29556;50.846;4.442;2023-03-23T00:57:43;13.90;85.50
43894;DHT22;29556;50.846;4.442;2023-03-23T01:00:09;13.90;85.70
43894;DHT22;29556;50.846;4.442;2023-03-23T01:02:36;13.90;85.60
43894;DHT22;29556;50.846;4.442;2023-03-23T01:05:02;14.00;85.80
43894;DHT22;29556;50.846;4.442;2023-03-23T01:07:29;13.90;85.70
43894;DHT22;29556;50.846;4.442;2023-03-23T01:09:56;13.90;85.90
43894;DHT22;29556;50.846;4.442;2023-03-23T01:12:23;13.90;85.90
43894;DHT22;29556;50.846;4.442;2023-03-23T01:14:50;14.10;86.00
43894;DHT22;29556;50.846;4.442;2023-03-23T01:17:16;13.90;86.00
43894;DHT22;29556;50.846;4.442;2023-03-23T01:19:42;13.90;86.20
43894;DHT22;29556;50.846;4.442;2023-03-23T01:22:08;13.90;85.80
43894;DHT22;29556;50.846;4.442;2023-03-23T01:24:33;14.00;85.90
43894;DHT22;29556;50.846;4.442;2023-03-23T01:26:59;14.10;85.80
43894;DHT22;29556;50.846;4.442;2023-03-23T01:29:32;14.10;85.40
43894;DHT22;29556;50.846;4.442;2023-03-23T01:31:58;14.10;85.20
43894;DHT22;29556;50.846;4.442;2023-03-23T01:34:24;14.10;85.50
43894;DHT22;29556;50.846;4.442;2023-03-23T01:36:49;14.10;85.50
43894;DHT22;29556;50.846;4.442;2023-03-23T01:39:15;13.90;85.20
43894;DHT22;29556;50.846;4.442;2023-03-23T01:41:41;13.90;85.40
43894;DHT22;29556;50.846;4.442;2023-03-23T01:46:44;13.90;85.40
43894;DHT22;29556;50.846;4.442;2023-03-23T01:49:16;14.00;84.90
43894;DHT22;29556;50.846;4.442;2023-03-23T01:52:31;14.00;84.60
43894;DHT22;29556;50.846;4.442;2023-03-23T01:54:32;14.00;84.30
43894;DHT22;29556;50.846;4.442;2023-03-23T01:57:03;14.00;84.10
43894;DHT22;29556;50.846;4.442;2023-03-23T01:59:32;14.00;84.30
43894;DHT22;29556;50.846;4.442;2023-03-23T02:01:58;14.00;84.20
43894;DHT22;29556;50.846;4.442;2023-03-23T02:04:27;14.00;84.50
43894;DHT22;29556;50.846;4.442;2023-03-23T02:06:56;13.90;84.30
43894;DHT22;29556;50.846;4.442;2023-03-23T02:09:24;13.90;84.70
43894;DHT22;29556;50.846;4.442;2023-03-23T02:11:51;13.90;84.80
43894;DHT22;29556;50.846;4.442;2023-03-23T02:14:18;13.90;85.20
43894;DHT22;29556;50.846;4.442;2023-03-23T02:19:50;13.90;84.60
43894;DHT22;29556;50.846;4.442;2023-03-23T02:34:09;13.90;83.20
43894;DHT22;29556;50.846;4.442;2023-03-23T02:36:46;13.90;83.00
43894;DHT22;29556;50.846;4.442;2023-03-23T02:39:47;13.80;82.60
43894;DHT22;29556;50.846;4.442;2023-03-23T02:42:21;13.80;83.30
43894;DHT22;29556;50.846;4.442;2023-03-23T02:44:49;13.80;82.90
43894;DHT22;29556;50.846;4.442;2023-03-23T02:47:20;13.90;82.50
43894;DHT22;29556;50.846;4.442;2023-03-23T02:49:50;13.80;82.90
43894;DHT22;29556;50.846;4.442;2023-03-23T02:52:29;13.80;82.30
43894;DHT22;29556;50.846;4.442;2023-03-23T02:54:56;13.80;82.30
43894;DHT22;29556;50.846;4.442;2023-03-23T02:57:24;13.90;82.50
43894;DHT22;29556;50.846;4.442;2023-03-23T02:59:51;13.80;82.40
43894;DHT22;29556;50.846;4.442;2023-03-23T03:02:31;13.80;82.20
43894;DHT22;29556;50.846;4.442;2023-03-23T03:05:31;13.90;82.30
43894;DHT22;29556;50.846;4.442;2023-03-23T03:08:09;13.90;81.90
43894;DHT22;29556;50.846;4.442;2023-03-23T03:10:58;13.90;81.80
43894;DHT22;29556;50.846;4.442;2023-03-23T03:13:35;13.80;81.70
43894;DHT22;29556;50.846;4.442;2023-03-23T03:16:18;13.80;81.70
43894;DHT22;29556;50.846;4.442;2023-03-23T03:21:36;13.80;81.10
43894;DHT22;29556;50.846;4.442;2023-03-23T03:24:04;13.80;81.30
43894;DHT22;29556;50.846;4.442;2023-03-23T03:26:34;13.80;81.00
43894;DHT22;29556;50.846;4.442;2023-03-23T03:29:01;13.80;81.40
43894;DHT22;29556;50.846;4.442;2023-03-23T03:31:30;13.80;81.30
43894;DHT22;29556;50.846;4.442;2023-03-23T03:33:57;13.70;80.90
43894;DHT22;29556;50.846;4.442;2023-03-23T03:36:29;13.80;81.00
43894;DHT22;29556;50.846;4.442;2023-03-23T03:39:05;13.80;80.50
43894;DHT22;29556;50.846;4.442;2023-03-23T03:41:34;13.80;80.40
43894;DHT22;29556;50.846;4.442;2023-03-23T03:44:00;13.90;80.50
43894;DHT22;29556;50.846;4.442;2023-03-23T03:46:26;13.90;80.20
43894;DHT22;29556;50.846;4.442;2023-03-23T03:48:55;13.90;80.50
43894;DHT22;29556;50.846;4.442;2023-03-23T03:51:22;13.80;80.60
43894;DHT22;29556;50.846;4.442;2023-03-23T03:53:48;13.90;80.70
43894;DHT22;29556;50.846;4.442;2023-03-23T03:56:14;13.90;80.40
43894;DHT22;29556;50.846;4.442;2023-03-23T03:58:40;13.90;80.70
43894;DHT22;29556;50.846;4.442;2023-03-23T04:01:09;14.00;80.70
43894;DHT22;29556;50.846;4.442;2023-03-23T04:03:36;13.90;80.50
43894;DHT22;29556;50.846;4.442;2023-03-23T04:06:02;13.90;80.50
43894;DHT22;29556;50.846;4.442;2023-03-23T04:08:29;14.00;80.60
43894;DHT22;29556;50.846;4.442;2023-03-23T04:10:55;14.00;80.70
43894;DHT22;29556;50.846;4.442;2023-03-23T04:13:21;14.00;80.20
43894;DHT22;29556;50.846;4.442;2023-03-23T04:15:47;13.90;80.00
43894;DHT22;29556;50.846;4.442;2023-03-23T04:18:14;13.90;80.10
43894;DHT22;29556;50.846;4.442;2023-03-23T04:20:41;14.10;80.40
43894;DHT22;29556;50.846;4.442;2023-03-23T04:23:08;14.00;79.80
43894;DHT22;29556;50.846;4.442;2023-03-23T04:25:33;13.80;79.80
43894;DHT22;29556;50.846;4.442;2023-03-23T04:27:59;13.80;80.00
43894;DHT22;29556;50.846;4.442;2023-03-23T04:30:27;13.70;80.10
43894;DHT22;29556;50.846;4.442;2023-03-23T04:32:56;13.70;80.00
43894;DHT22;29556;50.846;4.442;2023-03-23T04:35:26;13.70;79.70
43894;DHT22;29556;50.846;4.442;2023-03-23T04:37:54;13.70;79.80
43894;DHT22;29556;50.846;4.442;2023-03-23T04:40:22;13.80;79.70
43894;DHT22;29556;50.846;4.442;2023-03-23T04:42:48;13.80;79.80
43894;DHT22;29556;50.846;4.442;2023-03-23T04:45:20;13.80;79.60
43894;DHT22;29556;50.846;4.442;2023-03-23T04:47:51;13.80;79.50
43894;DHT22;29556;50.846;4.442;2023-03-23T04:50:27;13.90;79.00
43894;DHT22;29556;50.846;4.442;2023-03-23T04:52:56;13.90;79.20
43894;DHT22;29556;50.846;4.442;2023-03-23T04:55:24;13.80;79.20
43894;DHT22;29556;50.846;4.442;2023-03-23T04:57:50;13.70;79.70
43894;DHT22;29556;50.846;4.442;2023-03-23T05:00:16;13.70;79.50
43894;DHT22;29556;50.846;4.442;2023-03-23T05:02:45;13.60;79.40
43894;DHT22;29556;50.846;4.442;2023-03-23T05:05:19;13.60;79.60
43894;DHT22;29556;50.846;4.442;2023-03-23T05:07:46;13.60;80.00
43894;DHT22;29556;50.846;4.442;2023-03-23T05:10:13;13.70;79.80
43894;DHT22;29556;50.846;4.442;2023-03-23T05:12:39;13.70;79.80
43894;DHT22;29556;50.846;4.442;2023-03-23T05:15:09;13.60;79.90
43894;DHT22;29556;50.846;4.442;2023-03-23T05:17:36;13.70;79.90
43894;DHT22;29556;50.846;4.442;2023-03-23T05:20:03;13.70;79.70
43894;DHT22;29556;50.846;4.442;2023-03-23T05:22:30;13.70;79.30
43894;DHT22;29556;50.846;4.442;2023-03-23T05:25:00;13.80;79.50
43894;DHT22;29556;50.846;4.442;2023-03-23T05:27:28;13.80;79.40
43894;DHT22;29556;50.846;4.442;2023-03-23T05:29:56;13.80;79.40
43894;DHT22;29556;50.846;4.442;2023-03-23T05:32:24;13.80;79.70
43894;DHT22;29556;50.846;4.442;2023-03-23T05:35:01;13.70;79.70
43894;DHT22;29556;50.846;4.442;2023-03-23T05:37:27;13.80;79.80
43894;DHT22;29556;50.846;4.442;2023-03-23T05:39:58;13.80;80.00
43894;DHT22;29556;50.846;4.442;2023-03-23T05:42:27;13.80;80.00
43894;DHT22;29556;50.846;4.442;2023-03-23T05:44:53;13.70;80.30
43894;DHT22;29556;50.846;4.442;2023-03-23T05:47:19;13.70;80.60
43894;DHT22;29556;50.846;4.442;2023-03-23T05:49:44;13.80;80.60
43894;DHT22;29556;50.846;4.442;2023-03-23T05:52:10;13.70;80.60
43894;DHT22;29556;50.846;4.442;2023-03-23T05:54:35;13.80;81.00
43894;DHT22;29556;50.846;4.442;2023-03-23T05:57:02;13.70;80.80
43894;DHT22;29556;50.846;4.442;2023-03-23T05:59:28;13.60;80.80
43894;DHT22;29556;50.846;4.442;2023-03-23T06:01:53;13.70;80.70
43894;DHT22;29556;50.846;4.442;2023-03-23T06:04:20;13.70;80.80
43894;DHT22;29556;50.846;4.442;2023-03-23T06:06:46;13.70;80.80
43894;DHT22;29556;50.846;4.442;2023-03-23T06:09:12;13.80;80.60
43894;DHT22;29556;50.846;4.442;2023-03-23T06:11:37;13.80;80.30
43894;DHT22;29556;50.846;4.442;2023-03-23T06:14:03;13.80;80.00
43894;DHT22;29556;50.846;4.442;2023-03-23T06:16:29;13.70;80.30
43894;DHT22;29556;50.846;4.442;2023-03-23T06:18:55;13.80;80.40
43894;DHT22;29556;50.846;4.442;2023-03-23T06:21:22;13.60;80.60
43894;DHT22;29556;50.846;4.442;2023-03-23T06:23:48;13.60;80.80
43894;DHT22;29556;50.846;4.442;2023-03-23T06:26:14;13.60;80.60
43894;DHT22;29556;50.846;4.442;2023-03-23T06:28:42;13.50;80.60
43894;DHT22;29556;50.846;4.442;2023-03-23T06:31:08;13.60;81.10
43894;DHT22;29556;50.846;4.442;2023-03-23T06:33:34;13.60;81.40
43894;DHT22;29556;50.846;4.442;2023-03-23T06:36:01;13.60;80.70
43894;DHT22;29556;50.846;4.442;2023-03-23T06:38:27;13.70;80.70
43894;DHT22;29556;50.846;4.442;2023-03-23T06:40:53;13.70;80.30
43894;DHT22;29556;50.846;4.442;2023-03-23T06:43:19;13.70;80.20
43894;DHT22;29556;50.846;4.442;2023-03-23T06:45:45;13.70;80.30
43894;DHT22;29556;50.846;4.442;2023-03-23T06:48:11;13.90;80.10
43894;DHT22;29556;50.846;4.442;2023-03-23T06:50:37;13.80;80.10
43894;DHT22;29556;50.846;4.442;2023-03-23T06:53:03;13.70;80.60
43894;DHT22;29556;50.846;4.442;2023-03-23T06:55:28;13.70;81.60
43894;DHT22;29556;50.846;4.442;2023-03-23T06:57:54;13.70;82.60
43894;DHT22;29556;50.846;4.442;2023-03-23T07:00:20;13.70;83.50
43894;DHT22;29556;50.846;4.442;2023-03-23T07:02:46;13.70;83.60
43894;DHT22;29556;50.846;4.442;2023-03-23T07:05:12;13.70;83.90
43894;DHT22;29556;50.846;4.442;2023-03-23T07:07:39;13.70;84.10
43894;DHT22;29556;50.846;4.442;2023-03-23T07:10:06;13.70;84.60
43894;DHT22;29556;50.846;4.442;2023-03-23T07:12:34;13.60;84.30
43894;DHT22;29556;50.846;4.442;2023-03-23T07:15:02;13.70;85.20
43894;DHT22;29556;50.846;4.442;2023-03-23T07:17:28;13.60;85.40
43894;DHT22;29556;50.846;4.442;2023-03-23T07:19:54;13.60;86.30
43894;DHT22;29556;50.846;4.442;2023-03-23T07:22:19;13.40;86.80
43894;DHT22;29556;50.846;4.442;2023-03-23T07:24:45;13.30;87.20
43894;DHT22;29556;50.846;4.442;2023-03-23T07:27:11;13.00;87.60
43894;DHT22;29556;50.846;4.442;2023-03-23T07:29:36;12.90;88.50
43894;DHT22;29556;50.846;4.442;2023-03-23T07:32:05;12.80;89.00
43894;DHT22;29556;50.846;4.442;2023-03-23T07:34:31;12.80;89.80
43894;DHT22;29556;50.846;4.442;2023-03-23T07:36:57;12.70;90.00
43894;DHT22;29556;50.846;4.442;2023-03-23T07:39:23;12.60;90.30
43894;DHT22;29556;50.846;4.442;2023-03-23T07:41:49;12.60;91.10
43894;DHT22;29556;50.846;4.442;2023-03-23T07:44:15;12.50;90.80
43894;DHT22;29556;50.846;4.442;2023-03-23T07:46:41;12.60;91.10
43894;DHT22;29556;50.846;4.442;2023-03-23T07:49:08;12.70;91.20
43894;DHT22;29556;50.846;4.442;2023-03-23T07:51:34;12.80;91.10
43894;DHT22;29556;50.846;4.442;2023-03-23T07:54:01;12.90;91.10
43894;DHT22;29556;50.846;4.442;2023-03-23T07:56:29;12.90;91.10
43894;DHT22;29556;50.846;4.442;2023-03-23T07:58:56;13.00;91.10
43894;DHT22;29556;50.846;4.442;2023-03-23T08:01:22;13.10;91.00
43894;DHT22;29556;50.846;4.442;2023-03-23T08:03:50;13.10;90.90
43894;DHT22;29556;50.846;4.442;2023-03-23T08:06:16;13.20;90.90
43894;DHT22;29556;50.846;4.442;2023-03-23T08:08:42;13.20;90.80
43894;DHT22;29556;50.846;4.442;2023-03-23T08:11:08;13.30;90.50
43894;DHT22;29556;50.846;4.442;2023-03-23T08:13:33;13.20;90.00
43894;DHT22;29556;50.846;4.442;2023-03-23T08:16:01;13.20;89.60
43894;DHT22;29556;50.846;4.442;2023-03-23T08:18:30;13.20;88.70
43894;DHT22;29556;50.846;4.442;2023-03-23T08:20:56;13.00;88.90
43894;DHT22;29556;50.846;4.442;2023-03-23T08:23:22;13.00;88.70
43894;DHT22;29556;50.846;4.442;2023-03-23T08:25:48;12.90;88.50
43894;DHT22;29556;50.846;4.442;2023-03-23T08:28:14;12.90;89.00
43894;DHT22;29556;50.846;4.442;2023-03-23T08:30:40;13.00;89.10
43894;DHT22;29556;50.846;4.442;2023-03-23T08:33:07;12.90;88.60
43894;DHT22;29556;50.846;4.442;2023-03-23T08:35:34;12.90;88.80
43894;DHT22;29556;50.846;4.442;2023-03-23T08:38:00;13.00;88.90
43894;DHT22;29556;50.846;4.442;2023-03-23T08:40:26;12.80;89.40
43894;DHT22;29556;50.846;4.442;2023-03-23T08:42:52;12.80;89.90
43894;DHT22;29556;50.846;4.442;2023-03-23T08:45:21;12.90;89.40
43894;DHT22;29556;50.846;4.442;2023-03-23T08:47:47;12.90;89.70
43894;DHT22;29556;50.846;4.442;2023-03-23T08:50:19;12.90;89.30
43894;DHT22;29556;50.846;4.442;2023-03-23T08:52:51;12.90;89.60
43894;DHT22;29556;50.846;4.442;2023-03-23T08:55:18;13.00;89.80
43894;DHT22;29556;50.846;4.442;2023-03-23T08:57:44;13.00;90.00
43894;DHT22;29556;50.846;4.442;2023-03-23T09:00:14;13.00;90.30
43894;DHT22;29556;50.846;4.442;2023-03-23T09:02:47;13.00;89.80
43894;DHT22;29556;50.846;4.442;2023-03-23T09:05:15;13.10;90.00
43894;DHT22;29556;50.846;4.442;2023-03-23T09:07:43;13.20;90.00
43894;DHT22;29556;50.846;4.442;2023-03-23T09:10:09;13.20;89.80
43894;DHT22;29556;50.846;4.442;2023-03-23T09:12:35;13.30;89.60
43894;DHT22;29556;50.846;4.442;2023-03-23T09:15:03;13.30;89.60
43894;DHT22;29556;50.846;4.442;2023-03-23T09:17:41;13.30;90.10
43894;DHT22;29556;50.846;4.442;2023-03-23T09:20:09;13.30;89.30
43894;DHT22;29556;50.846;4.442;2023-03-23T09:22:40;13.30;89.80
43894;DHT22;29556;50.846;4.442;2023-03-23T09:25:08;13.30;89.60
43894;DHT22;29556;50.846;4.442;2023-03-23T09:27:35;13.30;89.40
43894;DHT22;29556;50.846;4.442;2023-03-23T09:30:04;13.20;90.00
43894;DHT22;29556;50.846;4.442;2023-03-23T09:32:35;13.20;90.00
43894;DHT22;29556;50.846;4.442;2023-03-23T09:35:03;13.20;90.10
43894;DHT22;29556;50.846;4.442;2023-03-23T09:37:29;13.30;90.20
43894;DHT22;29556;50.846;4.442;2023-03-23T09:39:55;13.30;90.10
43894;DHT22;29556;50.846;4.442;2023-03-23T09:42:47;13.50;90.20
43894;DHT22;29556;50.846;4.442;2023-03-23T09:51:32;13.40;90.20
43894;DHT22;29556;50.846;4.442;2023-03-23T09:54:17;13.40;90.20
43894;DHT22;29556;50.846;4.442;2023-03-23T09:56:45;13.50;90.20
43894;DHT22;29556;50.846;4.442;2023-03-23T10:01:50;13.60;90.50
43894;DHT22;29556;50.846;4.442;2023-03-23T10:04:34;13.50;90.40
43894;DHT22;29556;50.846;4.442;2023-03-23T10:07:11;13.50;90.40
43894;DHT22;29556;50.846;4.442;2023-03-23T10:09:39;13.60;90.40
43894;DHT22;29556;50.846;4.442;2023-03-23T10:15:12;13.80;90.50
43894;DHT22;29556;50.846;4.442;2023-03-23T10:25:46;14.30;89.50
43894;DHT22;29556;50.846;4.442;2023-03-23T10:28:18;14.40;89.40
43894;DHT22;29556;50.846;4.442;2023-03-23T10:30:49;14.40;88.00
43894;DHT22;29556;50.846;4.442;2023-03-23T10:33:25;14.40;88.10
43894;DHT22;29556;50.846;4.442;2023-03-23T10:36:07;14.60;87.60
43894;DHT22;29556;50.846;4.442;2023-03-23T10:38:40;14.50;86.90
43894;DHT22;29556;50.846;4.442;2023-03-23T10:41:11;14.50;87.50
43894;DHT22;29556;50.846;4.442;2023-03-23T10:43:38;14.50;87.10
43894;DHT22;29556;50.846;4.442;2023-03-23T10:46:26;14.70;86.60
43894;DHT22;29556;50.846;4.442;2023-03-23T10:48:54;14.70;86.30
43894;DHT22;29556;50.846;4.442;2023-03-23T10:51:27;14.80;86.60
43894;DHT22;29556;50.846;4.442;2023-03-23T10:53:58;14.90;85.70
43894;DHT22;29556;50.846;4.442;2023-03-23T10:56:28;15.00;85.80
43894;DHT22;29556;50.846;4.442;2023-03-23T10:58:55;15.00;85.30
43894;DHT22;29556;50.846;4.442;2023-03-23T11:01:30;15.30;85.40
43894;DHT22;29556;50.846;4.442;2023-03-23T11:03:57;15.20;84.40
43894;DHT22;29556;50.846;4.442;2023-03-23T11:06:27;15.10;84.70
43894;DHT22;29556;50.846;4.442;2023-03-23T11:08:58;15.20;84.80
43894;DHT22;29556;50.846;4.442;2023-03-23T11:11:31;15.30;84.80
43894;DHT22;29556;50.846;4.442;2023-03-23T11:14:00;15.40;83.80
43894;DHT22;29556;50.846;4.442;2023-03-23T11:16:32;15.40;83.60
43894;DHT22;29556;50.846;4.442;2023-03-23T11:19:00;15.30;83.30
43894;DHT22;29556;50.846;4.442;2023-03-23T11:21:38;15.30;83.40
43894;DHT22;29556;50.846;4.442;2023-03-23T11:24:05;15.10;83.30
43894;DHT22;29556;50.846;4.442;2023-03-23T11:26:33;15.10;84.10
43894;DHT22;29556;50.846;4.442;2023-03-23T11:29:16;15.30;83.70
43894;DHT22;29556;50.846;4.442;2023-03-23T11:31:46;15.50;83.80
43894;DHT22;29556;50.846;4.442;2023-03-23T11:34:21;15.80;83.10
43894;DHT22;29556;50.846;4.442;2023-03-23T11:37:19;15.80;81.70
43894;DHT22;29556;50.846;4.442;2023-03-23T11:39:55;16.10;81.40
43894;DHT22;29556;50.846;4.442;2023-03-23T11:43:08;16.20;81.00
43894;DHT22;29556;50.846;4.442;2023-03-23T11:45:18;16.20;79.90
43894;DHT22;29556;50.846;4.442;2023-03-23T11:47:53;16.20;77.80
43894;DHT22;29556;50.846;4.442;2023-03-23T11:50:28;16.30;78.70
43894;DHT22;29556;50.846;4.442;2023-03-23T11:53:10;16.30;77.70
43894;DHT22;29556;50.846;4.442;2023-03-23T11:58:21;16.50;76.40
43894;DHT22;29556;50.846;4.442;2023-03-23T12:00:58;16.60;76.90
43894;DHT22;29556;50.846;4.442;2023-03-23T12:06:15;16.50;74.90
43894;DHT22;29556;50.846;4.442;2023-03-23T12:08:58;16.60;76.40
43894;DHT22;29556;50.846;4.442;2023-03-23T12:11:52;16.70;75.10
43894;DHT22;29556;50.846;4.442;2023-03-23T12:22:59;16.40;74.20
43894;DHT22;29556;50.846;4.442;2023-03-23T12:36:48;16.30;74.30
43894;DHT22;29556;50.846;4.442;2023-03-23T12:39:31;16.20;73.90
43894;DHT22;29556;50.846;4.442;2023-03-23T12:47:56;16.20;74.00
43894;DHT22;29556;50.846;4.442;2023-03-23T12:50:34;16.10;73.80
43894;DHT22;29556;50.846;4.442;2023-03-23T12:53:23;16.00;74.00
43894;DHT22;29556;50.846;4.442;2023-03-23T12:56:25;16.00;73.70
43894;DHT22;29556;50.846;4.442;2023-03-23T12:59:00;16.00;73.20
43894;DHT22;29556;50.846;4.442;2023-03-23T13:01:32;16.10;74.60
43894;DHT22;29556;50.846;4.442;2023-03-23T13:04:13;16.10;74.50
43894;DHT22;29556;50.846;4.442;2023-03-23T13:06:45;16.20;75.20
43894;DHT22;29556;50.846;4.442;2023-03-23T13:09:22;16.30;76.60
43894;DHT22;29556;50.846;4.442;2023-03-23T13:11:54;16.60;75.80
43894;DHT22;29556;50.846;4.442;2023-03-23T13:14:48;16.70;75.20
43894;DHT22;29556;50.846;4.442;2023-03-23T13:20:43;16.90;74.10
43894;DHT22;29556;50.846;4.442;2023-03-23T13:23:23;17.10;74.10
43894;DHT22;29556;50.846;4.442;2023-03-23T13:28:48;17.20;71.90
43894;DHT22;29556;50.846;4.442;2023-03-23T13:31:20;17.30;72.20
43894;DHT22;29556;50.846;4.442;2023-03-23T13:33:51;17.20;70.10
43894;DHT22;29556;50.846;4.442;2023-03-23T13:36:35;17.10;71.50
43894;DHT22;29556;50.846;4.442;2023-03-23T13:39:26;17.20;70.90
43894;DHT22;29556;50.846;4.442;2023-03-23T13:49:59;17.00;69.40
43894;DHT22;29556;50.846;4.442;2023-03-23T13:52:46;16.90;68.40
43894;DHT22;29556;50.846;4.442;2023-03-23T13:55:39;16.80;69.70
43894;DHT22;29556;50.846;4.442;2023-03-23T14:00:46;16.80;70.10
43894;DHT22;29556;50.846;4.442;2023-03-23T14:03:36;16.70;70.80
43894;DHT22;29556;50.846;4.442;2023-03-23T14:06:02;16.70;69.50
43894;DHT22;29556;50.846;4.442;2023-03-23T14:10:56;16.40;75.00
43894;DHT22;29556;50.846;4.442;2023-03-23T14:13:32;16.40;75.90
43894;DHT22;29556;50.846;4.442;2023-03-23T14:16:03;16.30;75.80
43894;DHT22;29556;50.846;4.442;2023-03-23T14:18:39;16.30;76.60
43894;DHT22;29556;50.846;4.442;2023-03-23T14:21:15;16.30;75.80
43894;DHT22;29556;50.846;4.442;2023-03-23T14:23:41;16.10;77.30
43894;DHT22;29556;50.846;4.442;2023-03-23T14:26:12;16.20;78.10
43894;DHT22;29556;50.846;4.442;2023-03-23T14:28:43;16.30;78.60
43894;DHT22;29556;50.846;4.442;2023-03-23T14:31:25;16.20;78.80
43894;DHT22;29556;50.846;4.442;2023-03-23T14:33:53;16.30;78.90
43894;DHT22;29556;50.846;4.442;2023-03-23T14:36:28;16.40;78.90
43894;DHT22;29556;50.846;4.442;2023-03-23T14:41:44;16.60;77.40
43894;DHT22;29556;50.846;4.442;2023-03-23T14:44:18;16.70;77.80
43894;DHT22;29556;50.846;4.442;2023-03-23T14:46:49;16.60;78.20
43894;DHT22;29556;50.846;4.442;2023-03-23T14:49:17;16.50;77.70
43894;DHT22;29556;50.846;4.442;2023-03-23T14:51:52;16.40;75.80
43894;DHT22;29556;50.846;4.442;2023-03-23T14:54:37;16.40;76.30
43894;DHT22;29556;50.846;4.442;2023-03-23T14:59:50;16.30;73.00
43894;DHT22;29556;50.846;4.442;2023-03-23T15:05:01;16.50;74.30
43894;DHT22;29556;50.846;4.442;2023-03-23T15:07:33;16.50;72.70
43894;DHT22;29556;50.846;4.442;2023-03-23T15:10:00;16.60;73.30
43894;DHT22;29556;50.846;4.442;2023-03-23T15:12:29;16.70;73.50
43894;DHT22;29556;50.846;4.442;2023-03-23T15:15:02;16.80;72.00
43894;DHT22;29556;50.846;4.442;2023-03-23T15:17:30;16.80;71.70
43894;DHT22;29556;50.846;4.442;2023-03-23T15:20:06;16.70;71.10
43894;DHT22;29556;50.846;4.442;2023-03-23T15:22:32;16.80;72.20
43894;DHT22;29556;50.846;4.442;2023-03-23T15:25:09;16.70;70.40
43894;DHT22;29556;50.846;4.442;2023-03-23T15:27:41;16.90;71.50
43894;DHT22;29556;50.846;4.442;2023-03-23T15:32:59;16.80;71.00
43894;DHT22;29556;50.846;4.442;2023-03-23T15:35:26;16.90;71.50
43894;DHT22;29556;50.846;4.442;2023-03-23T15:38:06;17.00;71.70
43894;DHT22;29556;50.846;4.442;2023-03-23T15:40:35;17.00;71.80
